Monday, October 15, 2018, 4:31 AM EDT
Back to Local

KACY, Atlantic City International

Location: Absecon, NJ, United States Lat: 39.467
Local Time: 4:31 AM EDT ( 8:31 GMT) Lon: -74.583
Time Zone: US/Eastern Elev: 75 ft

Show me the last for .
Show Decoded

2018-10-15 03:54 METAR KACY 150754Z 22005KT 10SM OVC038 16/13 A3018 RMK AO2 SLP221 T01560128 $ =
2018-10-15 02:54 METAR KACY 150654Z 24003KT 10SM OVC038 16/12 A3020 RMK AO2 SLP225 T01560122 $ =
2018-10-15 01:54 METAR KACY 150554Z 00000KT 10SM BKN039 OVC048 14/12 A3020 RMK AO2 SLP227
                 T01440122 10144 20111 58007 $ =
2018-10-15 00:54 METAR KACY 150454Z 00000KT 10SM OVC050 13/11 A3021 RMK AO2 SLP231 T01330111
                 401610056 $ =
2018-10-14 23:54 METAR KACY 150354Z 00000KT 10SM OVC055 13/11 A3022 RMK AO2 SLP233 T01280111 $ =
2018-10-14 22:54 METAR KACY 150254Z 00000KT 10SM OVC065 13/11 A3023 RMK AO2 SLP235 T01280111
                 58001 $ =
2018-10-14 21:54 METAR KACY 150154Z 00000KT 10SM SCT070 OVC085 12/11 A3023 RMK AO2 SLP236
                 T01170106 $ =
2018-10-14 20:54 METAR KACY 150054Z 00000KT 10SM BKN095 OVC110 12/10 A3023 RMK AO2 SLP235
                 T01170100 $ =
2018-10-14 19:54 METAR KACY 142354Z 00000KT 10SM SCT100 11/09 A3023 RMK AO2 SLP235 T01110089
                 10161 20106 55001 $ =
2018-10-14 18:54 METAR KACY 142254Z 00000KT 10SM CLR 12/10 A3022 RMK AO2 SLP232 T01170100 $ =
2018-10-14 17:54 METAR KACY 142154Z 00000KT 10SM BKN120 15/09 A3022 RMK AO2 SLP232 T01500089 $ =
2018-10-14 16:54 METAR KACY 142054Z 29003KT 10SM OVC110 16/09 A3023 RMK AO2 SLP237 T01560089
                 56002 $ =
2018-10-14 15:54 METAR KACY 141954Z 25005KT 10SM OVC110 16/08 A3024 RMK AO2 SLP238 T01560083 $ =
2018-10-14 14:54 METAR KACY 141854Z 28003KT 10SM CLR 16/08 A3023 RMK AO2 SLP237 T01560078 $ =
2018-10-14 13:54 METAR KACY 141754Z 00000KT 10SM FEW030 SCT095 BKN110 15/07 A3024 RMK AO2 SLP239
                 T01500067 10150 20083 58011 $ =
2018-10-14 12:54 METAR KACY 141654Z 30003KT 10SM CLR 15/07 A3025 RMK AO2 SLP244 T01500067 $ =
2018-10-14 11:54 METAR KACY 141554Z 28003KT 10SM CLR 14/07 A3027 RMK AO2 SLP250 T01440072 $ =
2018-10-14 10:54 METAR KACY 141454Z 31004KT 10SM CLR 14/10 A3027 RMK AO2 SLP250 T01440100 51021 $
                 =
2018-10-14 09:54 METAR KACY 141354Z 31003KT 10SM CLR 11/09 A3027 RMK AO2 SLP249 T01110089 $ =
2018-10-14 08:54 METAR KACY 141254Z 32004KT 10SM CLR 09/07 A3023 RMK AO2 SLP236 T00940072 $ =
2018-10-14 07:54 METAR KACY 141154Z 00000KT 10SM CLR 08/07 A3021 RMK AO2 SLP228 70001 T00830067
                 10083 20056 53006 $ =
2018-10-14 06:54 METAR KACY 141054Z 00000KT 10SM CLR 08/06 A3020 RMK AO2 SLP225 T00780061 $ =
2018-10-14 05:54 METAR KACY 140954Z 00000KT 10SM CLR 07/06 A3020 RMK AO2 SLP225 T00720056 $ =
2018-10-14 04:54 METAR KACY 140854Z AUTO 00000KT 10SM CLR 07/06 A3019 RMK AO2 SLP222 T00720056
                 51010 $ =

Support USWX by starting your Amazon purchase here.